createdAt,value
2019-03-21T00:00:56.563Z,43.70
2019-03-21T00:03:23.155Z,43.70
2019-03-21T00:05:49.791Z,42.80
2019-03-21T00:08:16.225Z,43.10
2019-03-21T00:10:46.662Z,43.30
2019-03-21T00:13:14.088Z,43.70
2019-03-21T00:15:52.883Z,44.20
2019-03-21T00:18:19.312Z,44.60
2019-03-21T00:20:45.746Z,45.30
2019-03-21T00:23:12.173Z,45.60
2019-03-21T00:25:39.838Z,45.40
2019-03-21T00:28:06.270Z,45.40
2019-03-21T00:30:32.938Z,45.40
2019-03-21T00:32:59.564Z,45.50
2019-03-21T00:35:26.268Z,45.40
2019-03-21T00:37:52.830Z,45.40
2019-03-21T00:40:22.872Z,45.40
2019-03-21T00:42:49.399Z,45.50
2019-03-21T00:45:16.914Z,46.10
2019-03-21T00:47:44.848Z,46.40
2019-03-21T00:50:17.632Z,46.70
2019-03-21T00:52:55.327Z,46.80
2019-03-21T00:55:24.442Z,47.00
2019-03-21T00:57:50.874Z,46.10
2019-03-21T01:00:35.950Z,45.70
2019-03-21T01:03:03.976Z,45.00
2019-03-21T01:05:30.739Z,44.20
2019-03-21T01:07:57.271Z,43.40
2019-03-21T01:10:28.639Z,43.10
2019-03-21T01:12:55.053Z,42.50
2019-03-21T01:15:21.683Z,41.90
2019-03-21T01:17:48.293Z,41.30
2019-03-21T01:20:15.711Z,41.20
2019-03-21T01:22:43.139Z,41.30
2019-03-21T01:25:19.194Z,41.30
2019-03-21T01:27:45.823Z,41.30
2019-03-21T01:30:15.340Z,41.60
2019-03-21T01:32:41.892Z,42.10
2019-03-21T01:35:08.645Z,41.90
2019-03-21T01:37:35.740Z,41.90
2019-03-21T01:40:08.230Z,42.00
2019-03-21T01:42:34.671Z,42.00
2019-03-21T01:45:01.313Z,41.90
2019-03-21T01:47:27.798Z,41.60
2019-03-21T01:49:54.446Z,42.40
2019-03-21T01:52:20.964Z,42.60
2019-03-21T01:55:08.347Z,42.80
2019-03-21T01:57:34.783Z,43.40
2019-03-21T02:00:04.964Z,43.50
2019-03-21T02:02:31.406Z,43.60
2019-03-21T02:05:10.610Z,43.40
2019-03-21T02:07:37.127Z,43.00
2019-03-21T02:10:23.640Z,42.60
2019-03-21T02:12:50.873Z,42.50
2019-03-21T02:15:37.165Z,42.80
2019-03-21T02:18:04.285Z,43.80
2019-03-21T02:20:31.298Z,44.60
2019-03-21T02:22:57.847Z,45.20
2019-03-21T02:25:36.237Z,45.80
2019-03-21T02:28:03.385Z,47.30
2019-03-21T02:30:43.116Z,46.60
2019-03-21T02:33:18.860Z,47.10
2019-03-21T02:35:46.412Z,47.50
2019-03-21T02:38:13.038Z,47.90
2019-03-21T02:40:41.896Z,48.20
2019-03-21T02:43:08.413Z,48.00
2019-03-21T02:45:35.067Z,48.20
2019-03-21T02:48:01.860Z,48.80
2019-03-21T02:50:36.544Z,47.50
2019-03-21T02:55:50.700Z,47.40
2019-03-21T02:58:17.331Z,47.40
2019-03-21T03:00:44.864Z,47.80
2019-03-21T03:03:11.363Z,48.20
2019-03-21T03:05:38.001Z,48.40
2019-03-21T03:08:05.686Z,48.20
2019-03-21T03:10:44.702Z,48.40
2019-03-21T03:13:11.203Z,47.80
2019-03-21T03:15:39.054Z,47.10
2019-03-21T03:18:07.771Z,46.90
2019-03-21T03:20:34.414Z,46.90
2019-03-21T03:23:01.167Z,47.20
2019-03-21T03:25:30.298Z,47.60
2019-03-21T03:28:12.675Z,48.00
2019-03-21T03:30:39.337Z,47.70
2019-03-21T03:33:06.906Z,48.10
2019-03-21T03:35:41.485Z,47.90
2019-03-21T03:38:08.136Z,47.70
2019-03-21T03:40:37.853Z,47.40
2019-03-21T03:43:04.808Z,46.70
2019-03-21T03:45:37.808Z,46.90
2019-03-21T03:48:04.331Z,46.70
2019-03-21T03:50:30.720Z,47.00
2019-03-21T03:52:58.074Z,47.30
2019-03-21T03:55:25.061Z,47.70
2019-03-21T03:58:00.562Z,47.80
2019-03-21T04:00:27.200Z,48.20
2019-03-21T04:02:55.252Z,47.80
2019-03-21T04:05:21.972Z,47.80
2019-03-21T04:07:48.789Z,48.00
2019-03-21T04:10:30.829Z,48.30
2019-03-21T04:12:57.210Z,48.30
2019-03-21T04:15:23.958Z,48.90
2019-03-21T04:17:50.518Z,48.50
2019-03-21T04:20:26.107Z,48.90
2019-03-21T04:22:52.733Z,49.10
2019-03-21T04:25:23.082Z,49.00
2019-03-21T04:28:02.785Z,49.00
2019-03-21T04:30:29.401Z,49.40
2019-03-21T04:32:55.808Z,49.60
2019-03-21T04:35:22.230Z,50.30
2019-03-21T04:37:48.826Z,49.40
2019-03-21T04:40:16.880Z,49.40
2019-03-21T04:42:43.303Z,49.70
2019-03-21T04:45:13.583Z,49.80
2019-03-21T04:47:40.092Z,49.80
2019-03-21T04:50:21.493Z,50.20
2019-03-21T04:52:48.045Z,50.10
2019-03-21T04:55:16.483Z,49.90
2019-03-21T04:57:42.911Z,49.90
2019-03-21T05:00:18.572Z,49.90
2019-03-21T05:02:58.098Z,49.70
2019-03-21T05:05:26.504Z,49.90
2019-03-21T05:07:52.934Z,49.80
2019-03-21T05:10:19.468Z,50.00
2019-03-21T05:12:46.076Z,50.10
2019-03-21T05:15:18.439Z,49.90
2019-03-21T05:17:46.143Z,50.70
2019-03-21T05:20:18.856Z,49.90
2019-03-21T05:22:45.695Z,49.60
2019-03-21T05:25:12.375Z,49.90
2019-03-21T05:27:39.991Z,50.10
2019-03-21T05:30:10.215Z,50.40
2019-03-21T05:32:37.073Z,50.20
2019-03-21T05:35:07.197Z,50.30
2019-03-21T05:37:33.752Z,50.60
2019-03-21T05:40:00.679Z,50.40
2019-03-21T05:42:27.123Z,50.90
2019-03-21T05:44:54.720Z,50.60
2019-03-21T05:47:21.490Z,50.80
2019-03-21T05:49:48.128Z,50.90
2019-03-21T05:52:22.781Z,50.80
2019-03-21T05:54:49.427Z,50.60
2019-03-21T05:57:16.064Z,50.50
2019-03-21T05:59:42.898Z,50.40
2019-03-21T06:02:09.497Z,50.30
2019-03-21T06:04:36.973Z,50.40
2019-03-21T06:07:07.209Z,50.10
2019-03-21T06:09:33.617Z,50.40
2019-03-21T06:12:02.179Z,50.40
2019-03-21T06:14:32.607Z,50.20
2019-03-21T06:16:59.032Z,50.00
2019-03-21T06:19:38.304Z,49.50
2019-03-21T06:22:26.540Z,49.70
2019-03-21T06:25:24.250Z,50.20
2019-03-21T06:27:50.711Z,49.90
2019-03-21T06:30:17.398Z,49.80
2019-03-21T06:32:55.713Z,49.90
2019-03-21T06:35:35.739Z,49.60
2019-03-21T06:38:02.241Z,49.40
2019-03-21T06:40:29.379Z,49.70
2019-03-21T06:42:57.209Z,49.60
2019-03-21T06:45:23.650Z,49.70
2019-03-21T06:47:52.881Z,49.60
2019-03-21T06:50:18.524Z,48.60
2019-03-21T06:52:45.098Z,48.60
2019-03-21T06:55:22.095Z,48.70
2019-03-21T06:57:49.744Z,49.40
2019-03-21T07:00:16.194Z,49.90
2019-03-21T07:02:42.672Z,49.70
2019-03-21T07:05:09.390Z,47.50
2019-03-21T07:07:55.653Z,45.70
2019-03-21T07:10:22.206Z,44.70
2019-03-21T07:12:48.636Z,43.60
2019-03-21T07:15:14.954Z,42.20
2019-03-21T07:17:41.454Z,41.30
2019-03-21T07:20:10.370Z,41.10
2019-03-21T07:22:38.605Z,41.10
2019-03-21T07:25:08.037Z,42.30
2019-03-21T07:27:35.644Z,43.10
2019-03-21T07:30:09.050Z,44.00
2019-03-21T07:32:35.498Z,45.00
2019-03-21T07:35:03.762Z,45.00
2019-03-21T07:37:30.314Z,44.00
2019-03-21T07:39:56.755Z,43.10
2019-03-21T07:42:23.182Z,42.30
2019-03-21T07:44:49.508Z,43.60
2019-03-21T07:47:15.940Z,44.80
2019-03-21T07:49:42.317Z,45.30
2019-03-21T07:52:08.864Z,44.90
2019-03-21T07:54:35.421Z,44.10
2019-03-21T07:57:02.110Z,42.70
2019-03-21T07:59:28.792Z,42.90
2019-03-21T08:01:55.438Z,42.50
2019-03-21T08:04:22.080Z,42.40
2019-03-21T08:06:48.575Z,42.60
2019-03-21T08:09:14.912Z,42.30
2019-03-21T08:11:41.412Z,42.10
2019-03-21T08:14:07.827Z,42.40
2019-03-21T08:16:34.232Z,42.10
2019-03-21T08:19:00.666Z,41.10
2019-03-21T08:21:26.966Z,42.00
2019-03-21T08:23:53.505Z,41.60
2019-03-21T08:26:19.896Z,40.80
2019-03-21T08:28:46.329Z,41.70
2019-03-21T08:31:13.129Z,42.60
2019-03-21T08:33:39.573Z,41.40
2019-03-21T08:36:06.105Z,41.10
2019-03-21T08:38:32.486Z,40.80
2019-03-21T08:40:59.113Z,40.60
2019-03-21T08:43:25.507Z,40.40
2019-03-21T08:45:51.845Z,38.90
2019-03-21T08:48:18.376Z,39.30
2019-03-21T08:50:44.684Z,38.30
2019-03-21T08:53:11.251Z,38.00
2019-03-21T08:55:37.680Z,38.90
2019-03-21T08:58:04.117Z,39.50
2019-03-21T09:00:34.521Z,39.20
2019-03-21T09:02:59.165Z,39.40
2019-03-21T09:05:25.561Z,38.60
2019-03-21T09:07:52.016Z,37.80
2019-03-21T09:10:18.617Z,37.10
2019-03-21T09:12:45.250Z,38.30
2019-03-21T09:15:11.926Z,38.10
2019-03-21T09:17:38.259Z,37.60
2019-03-21T09:20:05.937Z,37.10
2019-03-21T09:22:32.250Z,36.90
2019-03-21T09:24:58.667Z,36.60
2019-03-21T09:27:24.946Z,36.00
2019-03-21T09:29:53.875Z,36.70
2019-03-21T09:32:20.783Z,36.30
2019-03-21T09:35:00.757Z,36.30
2019-03-21T09:37:27.189Z,36.30
2019-03-21T09:39:54.913Z,36.30
2019-03-21T09:42:21.707Z,35.10
2019-03-21T09:44:48.133Z,35.80
2019-03-21T09:47:14.575Z,35.00
2019-03-21T09:49:40.868Z,34.90
2019-03-21T09:52:07.388Z,35.40
2019-03-21T09:54:33.791Z,35.00
2019-03-21T09:57:00.113Z,35.20
2019-03-21T09:59:26.593Z,34.60
2019-03-21T10:01:54.447Z,34.70
2019-03-21T10:04:41.049Z,34.70
2019-03-21T10:07:07.587Z,34.70
2019-03-21T10:09:33.873Z,34.50
2019-03-21T10:12:00.315Z,34.80
2019-03-21T10:14:26.651Z,35.60
2019-03-21T10:16:52.998Z,35.00
2019-03-21T10:19:19.539Z,36.10
2019-03-21T10:21:46.097Z,36.60
2019-03-21T10:24:23.405Z,35.40
2019-03-21T10:26:49.847Z,36.10
2019-03-21T10:29:16.309Z,37.10
2019-03-21T10:31:42.819Z,36.50
2019-03-21T10:34:09.383Z,36.20
2019-03-21T10:36:35.975Z,35.60
2019-03-21T10:39:04.823Z,35.40
2019-03-21T10:41:31.361Z,33.30
2019-03-21T10:43:57.718Z,33.40
2019-03-21T10:46:24.251Z,33.00
2019-03-21T10:48:50.813Z,33.00
2019-03-21T10:51:17.398Z,32.80
2019-03-21T10:53:56.894Z,33.30
2019-03-21T10:56:23.530Z,32.50
2019-03-21T10:58:50.069Z,31.20
2019-03-21T11:01:16.498Z,32.00
2019-03-21T11:03:43.054Z,32.30
2019-03-21T11:06:09.495Z,33.10
2019-03-21T11:08:35.995Z,33.60
2019-03-21T11:11:02.503Z,33.50
2019-03-21T11:13:29.005Z,32.90
2019-03-21T11:15:55.459Z,32.60
2019-03-21T11:18:21.811Z,31.50
2019-03-21T11:20:48.451Z,32.40
2019-03-21T11:23:14.842Z,31.60
2019-03-21T11:25:41.407Z,31.60
2019-03-21T11:28:08.021Z,31.50
2019-03-21T11:30:36.168Z,32.00
2019-03-21T11:33:15.666Z,31.20
2019-03-21T11:35:42.286Z,31.50
2019-03-21T11:38:08.793Z,33.40
2019-03-21T11:40:35.268Z,31.70
2019-03-21T11:43:02.859Z,32.40
2019-03-21T11:45:29.609Z,31.10
2019-03-21T11:47:56.174Z,31.90
2019-03-21T11:50:22.846Z,31.50
2019-03-21T11:52:49.381Z,31.10
2019-03-21T11:55:15.865Z,31.80
2019-03-21T11:57:42.299Z,32.00
2019-03-21T12:00:11.165Z,31.80
2019-03-21T12:02:37.669Z,32.70
2019-03-21T12:05:05.462Z,32.90
2019-03-21T12:07:42.907Z,32.10
2019-03-21T12:10:10.856Z,31.50
2019-03-21T12:12:37.572Z,31.40
2019-03-21T12:15:09.403Z,33.50
2019-03-21T12:17:35.934Z,32.90
2019-03-21T12:20:04.917Z,32.50
2019-03-21T12:22:31.355Z,34.20
2019-03-21T12:24:57.864Z,32.80
2019-03-21T12:27:24.339Z,33.40
2019-03-21T12:29:50.864Z,33.20
2019-03-21T12:32:17.367Z,33.60
2019-03-21T12:34:44.116Z,32.00
2019-03-21T12:37:10.605Z,32.60
2019-03-21T12:39:37.151Z,31.90
2019-03-21T12:42:03.545Z,31.00
2019-03-21T12:44:30.061Z,30.20
2019-03-21T12:46:56.432Z,31.20
2019-03-21T12:49:23.033Z,30.00
2019-03-21T12:51:49.477Z,28.50
2019-03-21T12:54:16.106Z,29.30
2019-03-21T12:56:42.730Z,29.70
2019-03-21T12:59:09.189Z,29.50
2019-03-21T13:01:35.760Z,29.30
2019-03-21T13:04:02.429Z,28.40
2019-03-21T13:06:39.826Z,28.10
2019-03-21T13:09:06.964Z,28.20
2019-03-21T13:11:33.505Z,28.10
2019-03-21T13:14:10.588Z,28.20
2019-03-21T13:16:37.113Z,28.60
2019-03-21T13:19:03.645Z,27.20
2019-03-21T13:21:30.295Z,27.40
2019-03-21T13:23:58.005Z,27.50
2019-03-21T13:26:24.420Z,28.50
2019-03-21T13:28:50.865Z,27.70
2019-03-21T13:31:20.139Z,26.20
2019-03-21T13:33:46.699Z,26.70
2019-03-21T13:36:13.165Z,26.10
2019-03-21T13:38:39.872Z,25.80
2019-03-21T13:41:06.476Z,25.90
2019-03-21T13:43:32.904Z,26.30
2019-03-21T13:45:59.351Z,25.90
2019-03-21T13:48:25.748Z,26.40
2019-03-21T13:50:52.389Z,25.60
2019-03-21T13:53:19.270Z,26.10
2019-03-21T13:55:45.902Z,25.90
2019-03-21T13:58:12.525Z,25.50
2019-03-21T14:00:40.987Z,25.90
2019-03-21T14:03:07.448Z,24.60
2019-03-21T14:05:34.044Z,24.10
2019-03-21T14:08:00.438Z,23.70
2019-03-21T14:10:27.066Z,24.20
2019-03-21T14:12:53.520Z,24.00
2019-03-21T14:15:20.185Z,22.90
2019-03-21T14:17:46.737Z,24.20
2019-03-21T14:20:14.356Z,25.00
2019-03-21T14:22:41.845Z,24.70
2019-03-21T14:25:08.622Z,24.20
2019-03-21T14:27:34.965Z,23.40
2019-03-21T14:30:02.977Z,22.30
2019-03-21T14:32:29.535Z,22.50
2019-03-21T14:34:56.205Z,22.60
2019-03-21T14:37:22.750Z,22.80
2019-03-21T14:39:49.198Z,22.90
2019-03-21T14:42:15.734Z,22.70
2019-03-21T14:44:42.253Z,23.50
2019-03-21T14:47:09.960Z,22.90
2019-03-21T14:49:36.640Z,22.80
2019-03-21T14:52:03.327Z,21.90
2019-03-21T14:54:29.773Z,22.60
2019-03-21T14:56:56.315Z,22.10
2019-03-21T14:59:22.764Z,22.20
2019-03-21T15:01:49.291Z,22.20
2019-03-21T15:04:15.898Z,21.70
2019-03-21T15:06:42.364Z,21.60
2019-03-21T15:09:08.853Z,22.00
2019-03-21T15:11:35.279Z,21.60
2019-03-21T15:14:01.785Z,21.00
2019-03-21T15:16:29.613Z,20.90
2019-03-21T15:18:56.273Z,21.80
2019-03-21T15:21:22.738Z,20.70
2019-03-21T15:23:58.930Z,20.70
2019-03-21T15:26:18.537Z,21.80
2019-03-21T15:28:44.980Z,21.30
2019-03-21T15:31:11.743Z,20.90
2019-03-21T15:33:49.265Z,20.10
2019-03-21T15:36:15.785Z,19.80
2019-03-21T15:38:42.081Z,18.50
2019-03-21T15:41:08.544Z,16.90
2019-03-21T15:43:35.110Z,15.40
2019-03-21T15:46:01.631Z,14.60
2019-03-21T15:48:48.110Z,13.90
2019-03-21T15:51:14.722Z,13.90
2019-03-21T15:53:53.181Z,14.40
2019-03-21T15:56:09.477Z,14.70
2019-03-21T15:58:36.026Z,14.80
2019-03-21T16:01:03.158Z,17.00
2019-03-21T16:03:29.777Z,17.70
2019-03-21T16:05:57.300Z,18.20
2019-03-21T16:08:27.041Z,19.20
2019-03-21T16:10:53.204Z,20.10
2019-03-21T16:13:19.686Z,19.80
2019-03-21T16:15:46.235Z,20.60
2019-03-21T16:18:12.686Z,21.70
2019-03-21T16:20:39.287Z,22.20
2019-03-21T16:23:05.798Z,22.00
2019-03-21T16:25:33.536Z,22.00
2019-03-21T16:28:00.595Z,21.30
2019-03-21T16:30:28.335Z,21.80
2019-03-21T16:32:54.850Z,22.20
2019-03-21T16:35:21.387Z,21.50
2019-03-21T16:37:47.807Z,22.90
2019-03-21T16:40:15.650Z,22.90
2019-03-21T16:42:42.050Z,23.90
2019-03-21T16:45:10.562Z,24.20
2019-03-21T16:47:37.004Z,25.10
2019-03-21T16:50:06.494Z,25.00
2019-03-21T16:52:33.027Z,26.50
2019-03-21T16:54:59.467Z,26.70
2019-03-21T16:57:27.079Z,26.60
2019-03-21T16:59:53.565Z,27.70
2019-03-21T17:02:19.958Z,27.20
2019-03-21T17:04:46.504Z,27.70
2019-03-21T17:07:13.063Z,27.20
2019-03-21T17:09:39.578Z,28.50
2019-03-21T17:12:05.916Z,28.70
2019-03-21T17:14:33.743Z,30.20
2019-03-21T17:17:01.185Z,30.70
2019-03-21T17:19:27.535Z,29.70
2019-03-21T17:21:54.059Z,30.80
2019-03-21T17:24:29.315Z,32.50
2019-03-21T17:26:48.864Z,33.50
2019-03-21T17:29:15.364Z,34.40
2019-03-21T17:31:41.804Z,35.60
2019-03-21T17:34:08.394Z,36.60
2019-03-21T17:36:34.889Z,37.60
2019-03-21T17:39:01.609Z,38.50
2019-03-21T17:41:29.942Z,38.10
2019-03-21T17:43:56.683Z,38.00
2019-03-21T17:46:23.842Z,38.10
2019-03-21T17:48:50.486Z,38.50
2019-03-21T17:51:16.893Z,39.10
2019-03-21T17:53:43.290Z,39.50
2019-03-21T17:56:09.796Z,39.10
2019-03-21T17:58:36.196Z,38.90
2019-03-21T18:01:02.910Z,39.90
2019-03-21T18:03:29.624Z,39.00
2019-03-21T18:05:57.248Z,39.30
2019-03-21T18:08:23.772Z,39.00
2019-03-21T18:10:50.414Z,39.20
2019-03-21T18:13:16.876Z,39.40
2019-03-21T18:15:43.430Z,39.50
2019-03-21T18:18:10.228Z,39.70
2019-03-21T18:20:36.976Z,40.30
2019-03-21T18:23:03.762Z,40.50
2019-03-21T18:25:30.685Z,40.00
2019-03-21T18:28:10.144Z,40.40
2019-03-21T18:30:38.649Z,40.60
2019-03-21T18:33:05.385Z,40.70
2019-03-21T18:35:32.082Z,40.90
2019-03-21T18:37:58.971Z,41.10
2019-03-21T18:40:25.531Z,41.00
2019-03-21T18:42:52.037Z,40.70
2019-03-21T18:45:18.547Z,40.50
2019-03-21T18:47:45.108Z,40.60
2019-03-21T18:50:13.435Z,40.70
2019-03-21T18:52:40.218Z,41.30
2019-03-21T18:55:07.272Z,41.50
2019-03-21T18:57:33.950Z,41.30
2019-03-21T19:00:00.423Z,42.00
2019-03-21T19:02:26.888Z,42.00
2019-03-21T19:04:53.396Z,42.00
2019-03-21T19:07:19.972Z,42.00
2019-03-21T19:09:46.536Z,42.20
2019-03-21T19:12:12.987Z,42.10
2019-03-21T19:14:39.475Z,42.10
2019-03-21T19:17:06.127Z,42.30
2019-03-21T19:19:32.625Z,42.30
2019-03-21T19:21:59.393Z,43.20
2019-03-21T19:24:26.064Z,42.80
2019-03-21T19:26:52.671Z,43.10
2019-03-21T19:29:19.456Z,42.90
2019-03-21T19:31:46.308Z,42.90
2019-03-21T19:34:12.950Z,43.00
2019-03-21T19:36:39.628Z,42.50
2019-03-21T19:39:07.472Z,42.60
2019-03-21T19:41:33.902Z,42.70
2019-03-21T19:44:00.392Z,43.00
2019-03-21T19:46:27.181Z,42.90
2019-03-21T19:48:53.929Z,42.70
2019-03-21T19:51:20.432Z,42.80
2019-03-21T19:53:46.920Z,43.10
2019-03-21T19:56:13.555Z,42.90
2019-03-21T19:58:40.077Z,42.90
2019-03-21T20:01:06.619Z,42.90
2019-03-21T20:03:33.333Z,43.00
2019-03-21T20:06:00.594Z,43.00
2019-03-21T20:08:27.438Z,43.20
2019-03-21T20:10:54.084Z,43.40
2019-03-21T20:13:20.825Z,43.60
2019-03-21T20:15:47.417Z,43.50
2019-03-21T20:18:13.933Z,43.50
2019-03-21T20:20:40.566Z,43.20
2019-03-21T20:23:07.203Z,43.30
2019-03-21T20:25:42.865Z,44.00
2019-03-21T20:28:02.840Z,43.60
2019-03-21T20:30:29.329Z,43.60
2019-03-21T20:32:55.854Z,43.40
2019-03-21T20:35:22.383Z,43.50
2019-03-21T20:37:49.082Z,43.50
2019-03-21T20:40:17.347Z,43.30
2019-03-21T20:42:44.065Z,43.50
2019-03-21T20:59:00.544Z,42.60
2019-03-21T21:01:27.302Z,43.90
2019-03-21T21:03:54.013Z,44.30
2019-03-21T21:06:20.812Z,44.10
2019-03-21T21:08:47.348Z,44.10
2019-03-21T21:11:14.018Z,44.00
2019-03-21T21:13:40.662Z,44.10
2019-03-21T21:16:07.332Z,44.30
2019-03-21T21:18:33.843Z,44.30
2019-03-21T21:21:00.327Z,44.50
2019-03-21T21:23:26.862Z,44.10
2019-03-21T21:26:04.817Z,44.40
2019-03-21T21:28:41.564Z,44.40
2019-03-21T21:31:08.166Z,44.10
2019-03-21T21:33:34.661Z,44.20
2019-03-21T21:36:01.167Z,43.80
2019-03-21T21:38:27.934Z,44.00
2019-03-21T21:40:54.394Z,44.40
2019-03-21T21:43:20.931Z,44.40
2019-03-21T21:45:47.587Z,44.10
2019-03-21T21:48:14.259Z,44.20
2019-03-21T21:50:41.157Z,44.50
2019-03-21T21:53:07.745Z,44.30
2019-03-21T21:55:34.389Z,44.10
2019-03-21T21:58:01.298Z,44.50
2019-03-21T22:00:27.941Z,44.10
2019-03-21T22:03:07.326Z,44.30
2019-03-21T22:05:34.129Z,45.20
2019-03-21T22:08:11.083Z,44.80
2019-03-21T22:10:37.661Z,44.60
2019-03-21T22:13:05.354Z,45.00
2019-03-21T22:15:31.792Z,45.20
2019-03-21T22:18:18.286Z,44.80
2019-03-21T22:20:44.653Z,44.70
2019-03-21T22:23:11.284Z,44.70
2019-03-21T22:25:37.870Z,44.80
2019-03-21T22:28:04.560Z,45.10
2019-03-21T22:30:30.947Z,45.70
2019-03-21T22:32:57.547Z,45.20
2019-03-21T22:35:24.673Z,45.00
2019-03-21T22:37:51.342Z,45.10
2019-03-21T22:40:18.271Z,44.80
2019-03-21T22:42:44.913Z,45.00
2019-03-21T22:45:31.154Z,44.90
2019-03-21T22:47:57.853Z,44.80
2019-03-21T22:50:24.263Z,45.10
2019-03-21T22:52:50.834Z,45.10
2019-03-21T22:55:17.415Z,46.10
2019-03-21T22:57:44.086Z,44.90
2019-03-21T23:00:28.511Z,45.30
2019-03-21T23:02:56.972Z,45.40
2019-03-21T23:05:23.498Z,45.50
2019-03-21T23:07:50.152Z,45.40
2019-03-21T23:10:16.943Z,45.40
2019-03-21T23:12:45.602Z,45.30
2019-03-21T23:15:12.840Z,45.10
2019-03-21T23:17:40.215Z,44.90
2019-03-21T23:20:09.508Z,44.90
2019-03-21T23:22:36.068Z,45.00
2019-03-21T23:25:04.233Z,45.00
2019-03-21T23:27:32.171Z,44.90
2019-03-21T23:29:58.743Z,45.20
2019-03-21T23:32:25.225Z,44.90
2019-03-21T23:34:51.630Z,44.80
2019-03-21T23:37:19.589Z,44.80
2019-03-21T23:39:46.181Z,45.10
2019-03-21T23:42:12.556Z,45.20
2019-03-21T23:44:39.064Z,45.30
2019-03-21T23:47:05.664Z,45.20
2019-03-21T23:49:32.347Z,45.30
2019-03-21T23:51:59.749Z,44.90
2019-03-21T23:54:26.553Z,44.90
2019-03-21T23:57:03.850Z,45.10
2019-03-21T23:59:21.779Z,45.00
